createdAt,value
2022-10-05T00:00:01.335Z,11.9
2022-10-05T00:01:01.911Z,11.8
2022-10-05T00:02:01.537Z,11.8
2022-10-05T00:03:01.075Z,11.8
2022-10-05T00:04:01.698Z,11.8
2022-10-05T00:05:01.405Z,11.8
2022-10-05T00:06:01.873Z,11.9
2022-10-05T00:07:01.452Z,11.9
2022-10-05T00:08:01.027Z,11.9
2022-10-05T00:09:01.606Z,12
2022-10-05T00:10:01.203Z,12
2022-10-05T00:11:01.795Z,12
2022-10-05T00:12:01.367Z,12
2022-10-05T00:13:01.938Z,12
2022-10-05T00:14:01.511Z,12
2022-10-05T00:15:01.123Z,12.1
2022-10-05T00:16:01.702Z,12.1
2022-10-05T00:17:01.415Z,12.1
2022-10-05T00:18:01.908Z,12.2
2022-10-05T00:19:01.482Z,12.2
2022-10-05T00:20:01.075Z,12.1
2022-10-05T00:21:01.643Z,12.2
2022-10-05T00:22:01.215Z,12.2
2022-10-05T00:23:01.793Z,12.2
2022-10-05T00:24:01.381Z,12.2
2022-10-05T00:25:01.975Z,12.3
2022-10-05T00:26:01.549Z,12.3
2022-10-05T00:27:01.154Z,12.3
2022-10-05T00:28:01.732Z,12.3
2022-10-05T00:29:01.379Z,12.3
2022-10-05T00:30:01.967Z,12.4
2022-10-05T00:31:01.561Z,12.3
2022-10-05T00:32:01.174Z,12.3
2022-10-05T00:33:01.755Z,12.3
2022-10-05T00:34:01.333Z,12.2
2022-10-05T00:35:01.911Z,12.3
2022-10-05T00:36:01.508Z,12.2
2022-10-05T00:37:01.054Z,12.2
2022-10-05T00:38:01.623Z,12.2
2022-10-05T00:39:01.206Z,12.3
2022-10-05T00:40:01.774Z,12.3
2022-10-05T00:41:01.364Z,12.3
2022-10-05T00:42:01.931Z,12.3
2022-10-05T00:43:01.528Z,12.3
2022-10-05T00:44:01.091Z,12.3
2022-10-05T00:45:01.664Z,12.2
2022-10-05T00:46:01.307Z,12.2
2022-10-05T00:47:01.810Z,12.2
2022-10-05T00:48:01.381Z,12.3
2022-10-05T00:49:01.956Z,12.3
2022-10-05T00:50:01.534Z,12.2
2022-10-05T00:51:01.125Z,12.2
2022-10-05T00:52:01.680Z,12.2
2022-10-05T00:53:01.274Z,12.2
2022-10-05T00:54:01.843Z,12.3
2022-10-05T00:55:01.417Z,12.3
2022-10-05T00:56:01.988Z,12.3
2022-10-05T00:57:01.578Z,12.2
2022-10-05T00:58:01.154Z,12.2
2022-10-05T00:59:01.769Z,12.2
2022-10-05T01:00:01.363Z,12.2
2022-10-05T01:01:01.969Z,12.3
2022-10-05T01:02:01.669Z,12.3
2022-10-05T01:03:01.144Z,12.2
2022-10-05T01:04:01.735Z,12.2
2022-10-05T01:05:01.306Z,12.3
2022-10-05T01:06:01.878Z,12.3
2022-10-05T01:07:01.453Z,12.3
2022-10-05T01:08:01.044Z,12.3
2022-10-05T01:09:01.627Z,12.3
2022-10-05T01:10:01.199Z,12.3
2022-10-05T01:11:01.785Z,12.3
2022-10-05T01:12:01.360Z,12.3
2022-10-05T01:13:01.949Z,12.3
2022-10-05T01:14:01.544Z,12.3
2022-10-05T01:15:01.133Z,12.3
2022-10-05T01:16:01.764Z,12.3
2022-10-05T01:17:01.438Z,12.3
2022-10-05T01:18:01.918Z,12.3
2022-10-05T01:19:01.512Z,12.3
2022-10-05T01:20:01.069Z,12.3
2022-10-05T01:21:01.644Z,12.3
2022-10-05T01:22:01.219Z,12.3
2022-10-05T01:23:01.793Z,12.3
2022-10-05T01:24:01.387Z,12.3
2022-10-05T01:25:01.953Z,12.3
2022-10-05T01:26:01.527Z,12.4
2022-10-05T01:27:01.104Z,12.3
2022-10-05T01:28:01.730Z,12.3
2022-10-05T01:29:01.364Z,12.4
2022-10-05T01:30:01.902Z,12.3
2022-10-05T01:31:01.514Z,12.3
2022-10-05T01:32:01.063Z,12.4
2022-10-05T01:33:01.687Z,12.4
2022-10-05T01:34:01.278Z,12.4
2022-10-05T01:35:01.855Z,12.4
2022-10-05T01:36:01.432Z,12.4
2022-10-05T01:37:02.003Z,12.4
2022-10-05T01:38:01.581Z,12.4
2022-10-05T01:39:01.153Z,12.4
2022-10-05T01:40:01.750Z,12.4
2022-10-05T01:41:01.333Z,12.4
2022-10-05T01:42:01.911Z,12.3
2022-10-05T01:43:01.484Z,12.4
2022-10-05T01:44:01.059Z,12.3
2022-10-05T01:45:01.650Z,12.3
2022-10-05T01:46:01.267Z,12.3
2022-10-05T01:47:01.825Z,12.3
2022-10-05T01:48:01.399Z,12.3
2022-10-05T01:49:01.975Z,12.4
2022-10-05T01:50:01.566Z,12.4
2022-10-05T01:51:01.154Z,12.4
2022-10-05T01:52:01.726Z,12.4
2022-10-05T01:53:01.299Z,12.3
2022-10-05T01:54:01.874Z,12.4
2022-10-05T01:55:01.465Z,12.3
2022-10-05T01:56:01.025Z,12.3
2022-10-05T01:57:01.595Z,12.3
2022-10-05T01:58:01.168Z,12.3
2022-10-05T01:59:01.743Z,12.3
2022-10-05T02:00:01.358Z,12.3
2022-10-05T02:01:01.996Z,12.3
2022-10-05T02:02:01.650Z,12.2
2022-10-05T02:03:01.188Z,12.3
2022-10-05T02:04:01.751Z,12.3
2022-10-05T02:05:02.508Z,12.3
2022-10-05T02:06:01.388Z,12.3
2022-10-05T02:07:01.970Z,12.3
2022-10-05T02:08:01.135Z,12.3
2022-10-05T02:09:01.707Z,12.3
2022-10-05T02:10:01.295Z,12.2
2022-10-05T02:11:01.885Z,12.3
2022-10-05T02:12:01.457Z,12.2
2022-10-05T02:13:01.029Z,12.3
2022-10-05T02:14:01.620Z,12.2
2022-10-05T02:15:01.200Z,12.3
2022-10-05T02:16:01.845Z,12.2
2022-10-05T02:17:01.421Z,12.2
2022-10-05T02:18:02.033Z,12.3
2022-10-05T02:19:01.634Z,12.2
2022-10-05T02:20:01.209Z,12.2
2022-10-05T02:21:01.778Z,12.3
2022-10-05T02:22:01.370Z,12.3
2022-10-05T02:23:01.929Z,12.3
2022-10-05T02:24:01.504Z,12.3
2022-10-05T02:25:01.080Z,12.3
2022-10-05T02:26:01.654Z,12.3
2022-10-05T02:27:01.250Z,12.3
2022-10-05T02:28:01.859Z,12.3
2022-10-05T02:29:01.486Z,12.3
2022-10-05T02:30:01.056Z,12.3
2022-10-05T02:31:01.744Z,12.3
2022-10-05T02:32:01.276Z,12.3
2022-10-05T02:33:01.849Z,12.3
2022-10-05T02:34:01.490Z,12.3
2022-10-05T02:35:02.022Z,12.3
2022-10-05T02:36:01.599Z,12.4
2022-10-05T02:37:01.173Z,12.3
2022-10-05T02:38:01.746Z,12.4
2022-10-05T02:39:01.338Z,12.3
2022-10-05T02:40:01.894Z,12.4
2022-10-05T02:41:01.467Z,12.4
2022-10-05T02:42:01.039Z,12.5
2022-10-05T02:43:01.613Z,12.4
2022-10-05T02:44:01.204Z,12.4
2022-10-05T02:45:01.778Z,12.4
2022-10-05T02:46:01.427Z,12.4
2022-10-05T02:47:01.924Z,12.4
2022-10-05T02:48:01.497Z,12.3
2022-10-05T02:49:01.076Z,12.3
2022-10-05T02:50:01.652Z,12.3
2022-10-05T02:51:01.297Z,12.3
2022-10-05T02:52:01.800Z,12.3
2022-10-05T02:53:01.380Z,12.3
2022-10-05T02:54:01.973Z,12.3
2022-10-05T02:55:01.560Z,12.3
2022-10-05T02:56:01.133Z,12.3
2022-10-05T02:57:01.721Z,12.3
2022-10-05T02:58:01.295Z,12.3
2022-10-05T02:59:01.883Z,12.2
2022-10-05T03:00:01.465Z,12.2
2022-10-05T03:01:01.095Z,12.2
2022-10-05T03:02:01.663Z,12.2
2022-10-05T03:03:01.255Z,12.2
2022-10-05T03:04:01.847Z,12.2
2022-10-05T03:05:01.420Z,12.2
2022-10-05T03:06:01.991Z,12.2
2022-10-05T03:07:01.591Z,12.2
2022-10-05T03:08:01.184Z,12.3
2022-10-05T03:09:01.751Z,12.2
2022-10-05T03:10:01.567Z,12.2
2022-10-05T03:11:01.904Z,12.2
2022-10-05T03:12:01.481Z,12.2
2022-10-05T03:13:01.070Z,12.2
2022-10-05T03:14:01.643Z,12.2
2022-10-05T03:15:01.232Z,12.2
2022-10-05T03:16:01.869Z,12.2
2022-10-05T03:17:01.480Z,12.2
2022-10-05T03:18:01.045Z,12.2
2022-10-05T03:19:01.621Z,12.2
2022-10-05T03:20:01.195Z,12.2
2022-10-05T03:21:01.788Z,12.2
2022-10-05T03:22:01.361Z,12.2
2022-10-05T03:23:01.965Z,12.3
2022-10-05T03:24:01.548Z,12.3
2022-10-05T03:25:01.118Z,12.2
2022-10-05T03:26:01.714Z,12.2
2022-10-05T03:27:01.288Z,12.3
2022-10-05T03:28:01.896Z,12.4
2022-10-05T03:29:01.496Z,12.4
2022-10-05T03:30:01.071Z,12.4
2022-10-05T03:31:01.712Z,12.4
2022-10-05T03:32:01.303Z,12.4
2022-10-05T03:33:01.877Z,12.4
2022-10-05T03:34:01.449Z,12.4
2022-10-05T03:35:01.073Z,12.4
2022-10-05T03:36:01.626Z,12.3
2022-10-05T03:37:01.221Z,12.3
2022-10-05T03:38:01.787Z,12.3
2022-10-05T03:39:01.385Z,12.2
2022-10-05T03:40:01.936Z,12.2
2022-10-05T03:41:01.530Z,12.2
2022-10-05T03:42:01.093Z,12.3
2022-10-05T03:43:01.666Z,12.2
2022-10-05T03:44:01.252Z,12.2
2022-10-05T03:45:01.814Z,12.2
2022-10-05T03:46:01.438Z,12.2
2022-10-05T03:47:01.963Z,12.2
2022-10-05T03:48:01.849Z,12.2
2022-10-05T03:49:01.184Z,12.2
2022-10-05T03:50:01.758Z,12.2
2022-10-05T03:51:01.348Z,12.2
2022-10-05T03:52:01.906Z,12.2
2022-10-05T03:53:01.501Z,12
2022-10-05T03:54:01.054Z,12.1
2022-10-05T03:55:01.654Z,12.1
2022-10-05T03:56:03.181Z,12
2022-10-05T03:57:01.778Z,12.1
2022-10-05T03:58:01.374Z,12.1
2022-10-05T03:59:01.929Z,12.1
2022-10-05T04:00:01.503Z,12.1
2022-10-05T04:01:01.078Z,12
2022-10-05T04:02:01.660Z,12
2022-10-05T04:03:01.315Z,12
2022-10-05T04:04:01.805Z,12.1
2022-10-05T04:05:01.377Z,12.1
2022-10-05T04:06:01.945Z,12.1
2022-10-05T04:07:01.517Z,12.1
2022-10-05T04:08:01.108Z,12.2
2022-10-05T04:09:01.679Z,12.1
2022-10-05T04:10:01.250Z,12.2
2022-10-05T04:11:01.846Z,12.2
2022-10-05T04:12:01.424Z,12.2
2022-10-05T04:13:02.010Z,12.2
2022-10-05T04:14:01.604Z,12.2
2022-10-05T04:15:01.179Z,12.2
2022-10-05T04:16:01.824Z,12.3
2022-10-05T04:17:01.399Z,12.2
2022-10-05T04:18:01.978Z,12.3
2022-10-05T04:19:01.571Z,12.3
2022-10-05T04:20:01.145Z,12.4
2022-10-05T04:21:01.717Z,12.4
2022-10-05T04:22:01.287Z,12.4
2022-10-05T04:23:01.859Z,12.4
2022-10-05T04:24:01.452Z,12.4
2022-10-05T04:25:02.019Z,12.3
2022-10-05T04:26:01.603Z,12.4
2022-10-05T04:27:01.198Z,12.4
2022-10-05T04:28:01.801Z,12.4
2022-10-05T04:29:01.431Z,12.3
2022-10-05T04:30:01.989Z,12.3
2022-10-05T04:31:01.640Z,12.3
2022-10-05T04:32:01.219Z,12.2
2022-10-05T04:33:01.790Z,12.3
2022-10-05T04:34:01.366Z,12.3
2022-10-05T04:35:01.984Z,12.3
2022-10-05T04:36:01.574Z,12.2
2022-10-05T04:37:01.140Z,12.2
2022-10-05T04:38:01.714Z,12.2
2022-10-05T04:39:01.289Z,12.2
2022-10-05T04:40:01.882Z,12.2
2022-10-05T04:41:01.476Z,12.1
2022-10-05T04:42:01.163Z,12.1
2022-10-05T04:43:01.697Z,12.1
2022-10-05T04:44:01.266Z,12.2
2022-10-05T04:45:01.863Z,12.2
2022-10-05T04:46:01.456Z,12.2
2022-10-05T04:47:02.112Z,12.2
2022-10-05T04:48:01.750Z,12.2
2022-10-05T04:49:01.239Z,12.1
2022-10-05T04:50:01.853Z,12.1
2022-10-05T04:51:01.465Z,12.1
2022-10-05T04:52:01.033Z,12.1
2022-10-05T04:53:01.609Z,12.1
2022-10-05T04:54:01.186Z,12.1
2022-10-05T04:55:01.760Z,12.1
2022-10-05T04:56:01.351Z,12.1
2022-10-05T04:57:01.938Z,12.2
2022-10-05T04:58:01.533Z,12.2
2022-10-05T04:59:01.112Z,12.3
2022-10-05T05:00:01.669Z,12.3
2022-10-05T05:01:01.414Z,12.4
2022-10-05T05:02:01.825Z,12.5
2022-10-05T05:03:01.418Z,12.5
2022-10-05T05:04:02.091Z,12.6
2022-10-05T05:05:01.742Z,12.6
2022-10-05T05:06:17.897Z,12.6
2022-10-05T05:07:01.760Z,12.6
2022-10-05T05:08:01.351Z,12.6
2022-10-05T05:09:01.911Z,12.6
2022-10-05T05:10:01.483Z,12.6
2022-10-05T05:11:01.056Z,12.7
2022-10-05T05:12:01.631Z,12.6
2022-10-05T05:13:01.223Z,12.6
2022-10-05T05:14:01.780Z,12.7
2022-10-05T05:15:01.376Z,12.7
2022-10-05T05:16:01.996Z,12.7
2022-10-05T05:17:01.582Z,12.7
2022-10-05T05:18:01.165Z,12.7
2022-10-05T05:19:01.736Z,12.7
2022-10-05T05:20:01.327Z,12.7
2022-10-05T05:21:01.881Z,12.7
2022-10-05T05:22:01.461Z,12.8
2022-10-05T05:23:01.032Z,12.7
2022-10-05T05:24:01.624Z,12.8
2022-10-05T05:25:01.226Z,12.8
2022-10-05T05:26:01.771Z,12.8
2022-10-05T05:27:01.343Z,12.9
2022-10-05T05:28:01.996Z,12.9
2022-10-05T05:29:01.568Z,12.9
2022-10-05T05:30:01.155Z,12.8
2022-10-05T05:31:01.815Z,12.9
2022-10-05T05:32:01.389Z,13
2022-10-05T05:33:01.965Z,13
2022-10-05T05:34:01.541Z,13.1
2022-10-05T05:35:01.133Z,13.1
2022-10-05T05:36:01.743Z,13.2
2022-10-05T05:37:01.315Z,13.1
2022-10-05T05:38:01.901Z,13.1
2022-10-05T05:39:01.474Z,13.2
2022-10-05T05:40:01.048Z,13.2
2022-10-05T05:41:01.653Z,13.1
2022-10-05T05:42:01.228Z,13.1
2022-10-05T05:43:01.820Z,13.2
2022-10-05T05:44:01.394Z,13.1
2022-10-05T05:45:01.971Z,13.2
2022-10-05T05:46:01.560Z,13.2
2022-10-05T05:47:04.286Z,13.1
2022-10-05T05:48:01.670Z,13.2
2022-10-05T05:49:01.245Z,13.2
2022-10-05T05:50:06.547Z,13.1
2022-10-05T05:51:01.371Z,13.1
2022-10-05T05:52:01.950Z,13.2
2022-10-05T05:53:01.530Z,13.2
2022-10-05T05:54:01.099Z,13.2
2022-10-05T05:55:01.673Z,13.2
2022-10-05T05:56:01.265Z,13.2
2022-10-05T05:57:01.828Z,13.1
2022-10-05T05:58:01.400Z,13.2
2022-10-05T05:59:01.974Z,13.2
2022-10-05T06:00:01.547Z,13.2
2022-10-05T06:01:01.137Z,13.2
2022-10-05T06:02:01.749Z,13.2
2022-10-05T06:03:01.466Z,13.3
2022-10-05T06:04:01.918Z,13.2
2022-10-05T06:05:01.489Z,13.3
2022-10-05T06:06:01.081Z,13.3
2022-10-05T06:07:01.639Z,13.3
2022-10-05T06:08:01.213Z,13.4
2022-10-05T06:09:01.788Z,13.3
2022-10-05T06:10:01.359Z,13.4
2022-10-05T06:11:01.950Z,13.4
2022-10-05T06:12:01.522Z,13.4
2022-10-05T06:13:01.912Z,13.4
2022-10-05T06:14:01.547Z,13.5
2022-10-05T06:15:01.121Z,13.5
2022-10-05T06:16:01.746Z,13.6
2022-10-05T06:17:01.370Z,13.6
2022-10-05T06:18:01.926Z,13.6
2022-10-05T06:19:01.543Z,13.6
2022-10-05T06:20:04.834Z,13.7
2022-10-05T06:21:01.641Z,13.7
2022-10-05T06:22:01.265Z,13.8
2022-10-05T06:23:01.831Z,13.8
2022-10-05T06:24:01.403Z,13.8
2022-10-05T06:25:01.979Z,13.9
2022-10-05T06:26:01.555Z,14
2022-10-05T06:27:01.145Z,13.9
2022-10-05T06:28:01.734Z,14
2022-10-05T06:29:01.357Z,14.1
2022-10-05T06:30:01.930Z,14.1
2022-10-05T06:31:01.504Z,14.1
2022-10-05T06:32:01.130Z,14.1
2022-10-05T06:33:01.646Z,14.1
2022-10-05T06:34:01.244Z,14.2
2022-10-05T06:35:01.826Z,14.2
2022-10-05T06:36:01.452Z,14.2
2022-10-05T06:37:01.984Z,14.3
2022-10-05T06:38:01.560Z,14.3
2022-10-05T06:39:01.151Z,14.3
2022-10-05T06:40:01.728Z,14.4
2022-10-05T06:41:01.316Z,14.4
2022-10-05T06:42:01.897Z,14.4
2022-10-05T06:43:01.484Z,14.5
2022-10-05T06:44:01.085Z,14.5
2022-10-05T06:45:01.641Z,14.6
2022-10-05T06:46:01.284Z,14.6
2022-10-05T06:47:01.828Z,14.7
2022-10-05T06:48:05.110Z,14.6
2022-10-05T06:49:01.962Z,14.6
2022-10-05T06:50:01.546Z,14.7
2022-10-05T06:51:01.145Z,14.7
2022-10-05T06:52:01.695Z,14.7
2022-10-05T06:53:01.272Z,14.7
2022-10-05T06:54:01.863Z,14.8
2022-10-05T06:55:01.441Z,14.8
2022-10-05T06:56:02.013Z,14.8
2022-10-05T06:57:01.591Z,14.9
2022-10-05T06:58:01.169Z,14.9
2022-10-05T06:59:01.765Z,15
2022-10-05T07:00:01.342Z,15.1
2022-10-05T07:01:02.058Z,15
2022-10-05T07:02:01.623Z,15
2022-10-05T07:03:01.158Z,15
2022-10-05T07:04:01.748Z,15.1
2022-10-05T07:05:01.343Z,15.1
2022-10-05T07:06:01.911Z,15.1
2022-10-05T07:07:01.511Z,15.2
2022-10-05T07:08:01.073Z,15.2
2022-10-05T07:09:01.668Z,15.3
2022-10-05T07:10:01.267Z,15.2
2022-10-05T07:11:01.839Z,15.2
2022-10-05T07:12:05.040Z,15.3
2022-10-05T07:13:01.951Z,15.3
2022-10-05T07:14:01.544Z,15.3
2022-10-05T07:15:01.134Z,15.2
2022-10-05T07:16:01.789Z,15.2
2022-10-05T07:17:01.356Z,15.2
2022-10-05T07:18:01.929Z,15.3
2022-10-05T07:19:01.504Z,15.3
2022-10-05T07:20:01.099Z,15.3
2022-10-05T07:21:01.655Z,15.3
2022-10-05T07:22:01.273Z,15.3
2022-10-05T07:23:01.837Z,15.3
2022-10-05T07:24:01.411Z,15.3
2022-10-05T07:25:02.004Z,15.3
2022-10-05T07:26:01.578Z,15.3
2022-10-05T07:27:01.153Z,15.3
2022-10-05T07:28:01.826Z,15.3
2022-10-05T07:29:01.387Z,15.3
2022-10-05T07:30:01.976Z,15.3
2022-10-05T07:31:01.636Z,15.3
2022-10-05T07:32:01.192Z,15.3
2022-10-05T07:33:01.767Z,15.3
2022-10-05T07:34:01.345Z,15.3
2022-10-05T07:35:01.922Z,15.4
2022-10-05T07:36:01.524Z,15.4
2022-10-05T07:37:01.143Z,15.4
2022-10-05T07:38:01.659Z,15.4
2022-10-05T07:39:01.254Z,15.4
2022-10-05T07:40:01.867Z,15.4
2022-10-05T07:41:01.496Z,15.3
2022-10-05T07:42:01.050Z,15.4
2022-10-05T07:43:01.623Z,15.3
2022-10-05T07:44:02.701Z,15.3
2022-10-05T07:45:01.459Z,15.3
2022-10-05T07:46:01.108Z,15.4
2022-10-05T07:47:01.631Z,15.4
2022-10-05T07:48:01.203Z,15.4
2022-10-05T07:49:01.778Z,15.4
2022-10-05T07:50:01.353Z,15.3
2022-10-05T07:51:01.928Z,15.3
2022-10-05T07:52:01.525Z,15.3
2022-10-05T07:53:01.085Z,15.3
2022-10-05T07:54:01.661Z,15.3
2022-10-05T07:55:01.263Z,15.3
2022-10-05T07:56:01.804Z,15.3
2022-10-05T07:57:01.391Z,15.3
2022-10-05T07:58:01.964Z,15.3
2022-10-05T07:59:01.540Z,15.3
2022-10-05T08:00:01.118Z,15.3
2022-10-05T08:01:01.690Z,15.3
2022-10-05T08:02:01.347Z,15.3
2022-10-05T08:03:01.892Z,15.4
2022-10-05T08:04:01.509Z,15.4
2022-10-05T08:05:01.080Z,15.3
2022-10-05T08:06:01.654Z,15.4
2022-10-05T08:07:01.244Z,15.4
2022-10-05T08:08:01.803Z,15.4
2022-10-05T08:09:01.378Z,15.5
2022-10-05T08:10:01.969Z,15.5
2022-10-05T08:11:01.571Z,15.5
2022-10-05T08:12:01.142Z,15.5
2022-10-05T08:13:01.718Z,15.5
2022-10-05T08:14:01.294Z,15.5
2022-10-05T08:15:01.886Z,15.6
2022-10-05T08:16:01.502Z,15.7
2022-10-05T08:17:01.048Z,15.8
2022-10-05T08:18:01.625Z,15.7
2022-10-05T08:19:01.197Z,15.6
2022-10-05T08:20:01.783Z,15.8
2022-10-05T08:21:01.363Z,15.8
2022-10-05T08:22:01.937Z,15.8
2022-10-05T08:23:01.512Z,15.8
2022-10-05T08:24:01.230Z,15.9
2022-10-05T08:25:01.693Z,15.9
2022-10-05T08:26:01.265Z,15.9
2022-10-05T08:27:01.937Z,15.9
2022-10-05T08:28:01.602Z,16
2022-10-05T08:29:01.081Z,16
2022-10-05T08:30:01.670Z,16
2022-10-05T08:31:01.313Z,16.1
2022-10-05T08:32:01.827Z,15.8
2022-10-05T08:33:01.400Z,15.9
2022-10-05T08:34:01.973Z,15.9
2022-10-05T08:35:01.558Z,15.9
2022-10-05T08:36:01.156Z,16
2022-10-05T08:37:01.715Z,16.1
2022-10-05T08:38:01.336Z,16.1
2022-10-05T08:39:01.873Z,16.2
2022-10-05T08:40:01.445Z,16.2
2022-10-05T08:41:02.037Z,16.2
2022-10-05T08:42:01.612Z,16.2
2022-10-05T08:43:01.222Z,16.2
2022-10-05T08:44:01.765Z,16.3
2022-10-05T08:45:01.338Z,16.2
2022-10-05T08:46:02.041Z,16.3
2022-10-05T08:47:01.573Z,16.3
2022-10-05T08:48:01.143Z,16.5
2022-10-05T08:49:01.712Z,16.5
2022-10-05T08:50:01.287Z,16.5
2022-10-05T08:51:01.874Z,16.5
2022-10-05T08:52:01.465Z,16.5
2022-10-05T08:53:02.020Z,16.4
2022-10-05T08:54:01.592Z,16.3
2022-10-05T08:55:01.163Z,16.3
2022-10-05T08:56:01.741Z,16.3
2022-10-05T08:57:01.334Z,16.3
2022-10-05T08:58:01.895Z,16.4
2022-10-05T08:59:01.548Z,16.5
2022-10-05T09:00:01.053Z,16.6
2022-10-05T09:01:01.698Z,16.5
2022-10-05T09:02:01.303Z,16.5
2022-10-05T09:03:01.913Z,16.5
2022-10-05T09:04:01.533Z,16.5
2022-10-05T09:05:01.098Z,16.6
2022-10-05T09:06:01.673Z,16.5
2022-10-05T09:07:01.250Z,16.5
2022-10-05T09:08:01.819Z,16.6
2022-10-05T09:09:01.418Z,16.5
2022-10-05T09:10:02.180Z,16.6
2022-10-05T09:11:01.785Z,16.6
2022-10-05T09:12:01.180Z,16.7
2022-10-05T09:13:01.757Z,16.6
2022-10-05T09:14:01.358Z,16.8
2022-10-05T09:15:24.061Z,16.9
2022-10-05T09:16:01.588Z,16.9
2022-10-05T09:17:01.172Z,16.9
2022-10-05T09:18:01.746Z,16.9
2022-10-05T09:19:01.340Z,17
2022-10-05T09:20:01.923Z,17.2
2022-10-05T09:21:01.498Z,17.2
2022-10-05T09:22:01.073Z,17.1
2022-10-05T09:23:01.644Z,17.2
2022-10-05T09:24:01.221Z,17.2
2022-10-05T09:25:01.821Z,17.3
2022-10-05T09:26:01.402Z,17.2
2022-10-05T09:27:01.983Z,17.3
2022-10-05T09:28:01.649Z,17.2
2022-10-05T09:29:01.219Z,17.2
2022-10-05T09:30:01.810Z,17.1
2022-10-05T09:31:01.506Z,17.2
2022-10-05T09:32:01.992Z,17.2
2022-10-05T09:33:01.566Z,17.3
2022-10-05T09:34:01.141Z,17.3
2022-10-05T09:35:01.714Z,17.3
2022-10-05T09:36:01.289Z,17.2
2022-10-05T09:37:01.878Z,17.2
2022-10-05T09:38:01.500Z,17.3
2022-10-05T09:39:01.042Z,17.1
2022-10-05T09:40:01.823Z,17.2
2022-10-05T09:41:01.289Z,17.3
2022-10-05T09:42:01.878Z,17.4
2022-10-05T09:43:01.453Z,17.5
2022-10-05T09:44:02.024Z,17.6
2022-10-05T09:45:01.602Z,17.8
2022-10-05T09:46:01.218Z,17.6
2022-10-05T09:47:01.834Z,17.6
2022-10-05T09:48:01.417Z,17.6
2022-10-05T09:49:01.987Z,17.8
2022-10-05T09:50:01.563Z,17.8
2022-10-05T09:51:01.154Z,17.8
2022-10-05T09:52:01.738Z,17.7
2022-10-05T09:53:01.309Z,17.8
2022-10-05T09:54:01.882Z,17.6
2022-10-05T09:55:01.476Z,17.7
2022-10-05T09:56:01.046Z,17.7
2022-10-05T09:57:01.620Z,17.8
2022-10-05T09:58:01.191Z,17.9
2022-10-05T09:59:01.766Z,18.1
2022-10-05T10:00:01.443Z,18.1
2022-10-05T10:01:08.843Z,17.9
2022-10-05T10:02:01.491Z,18.1
2022-10-05T10:03:01.351Z,18
2022-10-05T10:04:01.677Z,18.1
2022-10-05T10:05:01.266Z,18.2
2022-10-05T10:06:01.834Z,18.1
2022-10-05T10:07:01.405Z,18
2022-10-05T10:08:01.979Z,18.1
2022-10-05T10:09:01.554Z,18.2
2022-10-05T10:10:01.144Z,18.3
2022-10-05T10:11:01.712Z,18.4
2022-10-05T10:12:01.288Z,18.3
2022-10-05T10:13:01.861Z,18.3
2022-10-05T10:14:01.434Z,18.3
2022-10-05T10:15:03.095Z,18.3
2022-10-05T10:16:01.922Z,18.2
2022-10-05T10:17:01.236Z,18.1
2022-10-05T10:18:01.807Z,18.2
2022-10-05T10:19:01.411Z,18.3
2022-10-05T10:20:01.966Z,18.3
2022-10-05T10:21:01.557Z,18.3
2022-10-05T10:22:01.135Z,18.1
2022-10-05T10:23:01.707Z,18
2022-10-05T10:24:01.291Z,17.9
2022-10-05T10:25:01.863Z,18
2022-10-05T10:26:01.458Z,18.1
2022-10-05T10:27:02.029Z,18.2
2022-10-05T10:28:01.645Z,18.3
2022-10-05T10:29:01.231Z,18.3
2022-10-05T10:30:01.804Z,18.5
2022-10-05T10:31:01.446Z,18.4
2022-10-05T10:32:01.964Z,18.5
2022-10-05T10:33:01.537Z,18
2022-10-05T10:34:01.113Z,17.8
2022-10-05T10:35:01.709Z,17.9
2022-10-05T10:36:02.896Z,18.1
2022-10-05T10:37:01.836Z,18.2
2022-10-05T10:38:01.409Z,18.3
2022-10-05T10:39:02.028Z,18.3
2022-10-05T10:40:01.601Z,18.3
2022-10-05T10:41:01.189Z,18.2
2022-10-05T10:42:01.779Z,18.2
2022-10-05T10:43:01.358Z,18.4
2022-10-05T10:44:01.931Z,18.4
2022-10-05T10:45:01.509Z,18.4
2022-10-05T10:46:01.093Z,18.3
2022-10-05T10:47:01.697Z,18.4
2022-10-05T10:48:01.272Z,18.3
2022-10-05T10:49:01.846Z,18.1
2022-10-05T10:50:01.418Z,18.2
2022-10-05T10:51:02.062Z,18.2
2022-10-05T10:52:01.652Z,18.1
2022-10-05T10:53:01.245Z,18.3
2022-10-05T10:54:01.808Z,18.4
2022-10-05T10:55:01.384Z,18.5
2022-10-05T10:56:01.959Z,18.7
2022-10-05T10:57:01.534Z,18.7
2022-10-05T10:58:01.123Z,18.9
2022-10-05T10:59:01.690Z,18.9
2022-10-05T11:00:01.265Z,19
2022-10-05T11:01:01.841Z,18.7
2022-10-05T11:02:01.454Z,18.7
2022-10-05T11:03:02.129Z,18.8
2022-10-05T11:04:01.821Z,18.5
2022-10-05T11:05:01.239Z,18.6
2022-10-05T11:06:01.810Z,18.8
2022-10-05T11:07:01.410Z,18.7
2022-10-05T11:08:01.984Z,18.6
2022-10-05T11:09:01.556Z,18.6
2022-10-05T11:10:01.147Z,18.7
2022-10-05T11:11:01.711Z,18.3
2022-10-05T11:12:01.296Z,18.5
2022-10-05T11:13:01.869Z,18.7
2022-10-05T11:14:01.450Z,18.7
2022-10-05T11:15:02.042Z,18.8
2022-10-05T11:16:01.723Z,18.9
2022-10-05T11:17:01.270Z,19
2022-10-05T11:18:01.848Z,19.2
2022-10-05T11:19:01.429Z,19.2
2022-10-05T11:20:04.313Z,19.2
2022-10-05T11:21:01.547Z,19.1
2022-10-05T11:22:01.134Z,19.1
2022-10-05T11:23:01.730Z,19.1
2022-10-05T11:24:01.302Z,19
2022-10-05T11:25:01.875Z,18.9
2022-10-05T11:26:01.473Z,19.1
2022-10-05T11:27:02.038Z,19
2022-10-05T11:28:01.666Z,19
2022-10-05T11:29:01.255Z,19
2022-10-05T11:30:01.834Z,19.1
2022-10-05T11:31:01.457Z,18.9
2022-10-05T11:32:01.994Z,18.6
2022-10-05T11:33:01.566Z,18.4
2022-10-05T11:34:01.137Z,18.6
2022-10-05T11:35:01.730Z,18.9
2022-10-05T11:36:01.317Z,18.9
2022-10-05T11:37:01.888Z,19
2022-10-05T11:38:01.478Z,18.9
2022-10-05T11:39:01.074Z,18.9
2022-10-05T11:40:01.668Z,18.8
2022-10-05T11:41:01.244Z,18.8
2022-10-05T11:42:01.818Z,18.8
2022-10-05T11:43:01.406Z,18.8
2022-10-05T11:44:04.549Z,18.8
2022-10-05T11:45:01.500Z,18.7
2022-10-05T11:46:01.107Z,18.7
2022-10-05T11:47:01.659Z,18.7
2022-10-05T11:48:01.258Z,18.5
2022-10-05T11:49:01.814Z,18.7
2022-10-05T11:50:01.386Z,18.8
2022-10-05T11:51:01.959Z,18.8
2022-10-05T11:52:01.531Z,18.9
2022-10-05T11:53:01.120Z,18.7
2022-10-05T11:54:01.681Z,18.7
2022-10-05T11:55:16.636Z,18.4
2022-10-05T11:56:01.788Z,18.6
2022-10-05T11:57:01.868Z,18.5
2022-10-05T11:58:01.634Z,18.6
2022-10-05T11:59:01.212Z,18.7
2022-10-05T12:00:01.795Z,18.8
2022-10-05T12:01:01.367Z,18.8
2022-10-05T12:02:02.036Z,18.8
2022-10-05T12:03:01.759Z,18.8
2022-10-05T12:04:01.316Z,18.8
2022-10-05T12:05:01.759Z,18.8
2022-10-05T12:06:01.347Z,18.7
2022-10-05T12:07:01.916Z,18.8
2022-10-05T12:08:01.493Z,18.9
2022-10-05T12:09:01.070Z,18.9
2022-10-05T12:10:01.649Z,18.8
2022-10-05T12:11:01.264Z,18.8
2022-10-05T12:12:01.809Z,18.9
2022-10-05T12:13:01.717Z,18.9
2022-10-05T12:14:01.597Z,18.9
2022-10-05T12:15:01.169Z,18.9
2022-10-05T12:16:01.782Z,18.9
2022-10-05T12:17:01.370Z,18.9
2022-10-05T12:18:01.949Z,18.9
2022-10-05T12:19:01.522Z,18.9
2022-10-05T12:20:01.096Z,19
2022-10-05T12:21:01.685Z,19
2022-10-05T12:22:01.275Z,18.9
2022-10-05T12:23:02.238Z,18.9
2022-10-05T12:24:01.505Z,18.9
2022-10-05T12:25:01.078Z,18.8
2022-10-05T12:26:01.651Z,18.8
2022-10-05T12:27:01.339Z,18.9
2022-10-05T12:28:01.849Z,19.1
2022-10-05T12:29:01.444Z,19.2
2022-10-05T12:30:02.024Z,19.2
2022-10-05T12:31:01.645Z,19.2
2022-10-05T12:32:01.239Z,19.1
2022-10-05T12:33:02.418Z,19.1
2022-10-05T12:34:01.051Z,19.1
2022-10-05T12:35:02.190Z,19
2022-10-05T12:36:01.847Z,18.9
2022-10-05T12:37:05.133Z,18.9
2022-10-05T12:38:01.978Z,19.1
2022-10-05T12:39:01.128Z,19.2
2022-10-05T12:40:01.812Z,19.4
2022-10-05T12:41:01.352Z,19.4
2022-10-05T12:42:01.946Z,19.4
2022-10-05T12:43:01.551Z,19.5
2022-10-05T12:44:01.112Z,19.4
2022-10-05T12:45:01.690Z,19.5
2022-10-05T12:46:01.319Z,19.6
2022-10-05T12:47:01.869Z,19.5
2022-10-05T12:48:01.442Z,19.5
2022-10-05T12:49:02.026Z,19.5
2022-10-05T12:50:01.662Z,19.5
2022-10-05T12:51:01.290Z,19.5
2022-10-05T12:52:01.857Z,19.6
2022-10-05T12:53:01.433Z,19.6
2022-10-05T12:54:02.011Z,19.7
2022-10-05T12:55:01.583Z,19.7
2022-10-05T12:56:01.176Z,19.7
2022-10-05T12:57:01.738Z,19.7
2022-10-05T12:58:01.330Z,19.8
2022-10-05T12:59:01.950Z,19.8
2022-10-05T13:00:01.584Z,19.8
2022-10-05T13:01:01.139Z,19.8
2022-10-05T13:02:01.818Z,19.7
2022-10-05T13:03:01.363Z,19.6
2022-10-05T13:04:01.956Z,19.6
2022-10-05T13:05:01.532Z,19.5
2022-10-05T13:06:02.705Z,19.6
2022-10-05T13:07:01.453Z,19.7
2022-10-05T13:08:02.044Z,19.8
2022-10-05T13:09:01.636Z,19.7
2022-10-05T13:10:01.233Z,19.8
2022-10-05T13:11:02.198Z,19.9
2022-10-05T13:12:01.443Z,20
2022-10-05T13:13:02.016Z,20
2022-10-05T13:14:01.610Z,20
2022-10-05T13:15:01.209Z,20.1
2022-10-05T13:16:01.805Z,20
2022-10-05T13:17:01.388Z,20.1
2022-10-05T13:18:01.964Z,20
2022-10-05T13:19:01.558Z,20
2022-10-05T13:20:01.181Z,20
2022-10-05T13:21:01.735Z,20